< < Back
Terminal Aerodrome Forecast


Current Version              Previous Versions:   1  2  3  4  5  6  7  8  9  

Terminal Aerodrome Forecast

877
FTUS42 KTAE 290520
TAFDHN
TAF
KDHN 290520Z 2906/3006 09007KT P6SM SCT050
     FM291000 06004KT P6SM BKN015
     FM291400 07008KT P6SM SCT030=



Latest METAR

109
SAUS70 KWBC 291400 RRE
MTRDHN
METAR KDHN 291353Z 09011KT 10SM SCT016 27/24 A3009 RMK AO2 SLP183
T02720239


USA.gov is the U.S. government's official web portal to all federal, state and local government web resources and services.